Time;durP1;ratioP1;P1;durP2;ratioP2;P2;SDS_P1;SDS_P2;PMS_P1;PMS_P2;Temp;Humidity;BMP_temperature;BMP_pressure;BME280_temperature;BME280_humidity;BME280_pressure;Samples;Min_cycle;Max_cycle;Signal;HPM_P1;HPM_P2
2022/01/22 00:00:16;;;;;;;10.23;7.13;;;1.80;99.90;;;;;;5034299;28;20613;-70
2022/01/22 00:02:42;;;;;;;11.98;7.43;;;1.80;99.90;;;;;;5048407;28;20509;-70
2022/01/22 00:05:10;;;;;;;13.05;7.47;;;1.80;99.90;;;;;;5043900;28;20056;-70
2022/01/22 00:07:37;;;;;;;12.30;7.30;;;1.90;99.90;;;;;;5036850;28;20091;-71
2022/01/22 00:10:12;;;;;;;12.07;7.57;;;1.90;99.90;;;;;;5036198;28;20021;-70
2022/01/22 00:15:06;;;;;;;12.52;7.53;;;1.90;99.90;;;;;;5054002;28;20047;-71
2022/01/22 00:17:32;;;;;;;14.38;8.05;;;1.90;99.90;;;;;;5059944;28;20480;-70
2022/01/22 00:19:57;;;;;;;16.00;7.78;;;1.90;99.90;;;;;;5048902;28;20041;-70
2022/01/22 00:22:27;;;;;;;12.82;7.78;;;1.90;99.90;;;;;;5041788;28;20032;-69
2022/01/22 00:24:57;;;;;;;14.27;8.20;;;1.90;99.90;;;;;;5032226;28;20086;-70
2022/01/22 00:27:22;;;;;;;10.77;7.50;;;1.90;99.90;;;;;;5039500;28;20076;-70
2022/01/22 00:29:48;;;;;;;15.43;8.02;;;1.90;99.90;;;;;;5056472;28;20419;-70
2022/01/22 00:32:14;;;;;;;15.77;8.48;;;1.90;99.90;;;;;;5044455;28;20029;-70
2022/01/22 00:34:40;;;;;;;15.90;8.10;;;1.90;99.90;;;;;;5056559;28;20028;-70
2022/01/22 00:37:05;;;;;;;19.45;8.70;;;1.90;99.90;;;;;;5052292;28;20048;-70
2022/01/22 00:39:33;;;;;;;15.00;9.20;;;2.00;99.90;;;;;;5051620;28;20087;-69
2022/01/22 00:41:59;;;;;;;14.10;8.52;;;1.90;99.90;;;;;;5049856;28;20036;-70
2022/01/22 00:44:25;;;;;;;20.42;9.57;;;1.90;99.90;;;;;;5041094;28;20037;-70
2022/01/22 00:46:52;;;;;;;15.95;9.45;;;2.00;99.90;;;;;;5052976;28;20450;-71
2022/01/22 00:49:18;;;;;;;18.98;9.40;;;1.90;99.90;;;;;;5053394;28;20128;-70
2022/01/22 00:51:44;;;;;;;16.77;9.75;;;2.00;99.90;;;;;;5040108;28;20025;-70
2022/01/22 00:54:09;;;;;;;14.93;8.88;;;1.90;99.90;;;;;;5050666;28;20051;-70
2022/01/22 00:56:35;;;;;;;16.40;9.82;;;1.90;99.90;;;;;;5032056;28;20029;-71
2022/01/22 00:59:00;;;;;;;15.88;9.52;;;2.00;99.90;;;;;;5049873;28;20024;-70
2022/01/22 01:01:27;;;;;;;17.88;10.02;;;2.00;99.90;;;;;;5051546;28;20025;-70
2022/01/22 01:03:53;;;;;;;24.23;10.75;;;2.00;99.90;;;;;;5045506;28;20389;-70
2022/01/22 01:06:19;;;;;;;16.92;9.75;;;2.00;99.90;;;;;;5038435;28;20033;-70
2022/01/22 01:08:45;;;;;;;16.58;9.95;;;2.00;99.90;;;;;;5045950;28;20025;-69
2022/01/22 01:11:13;;;;;;;19.67;10.32;;;2.00;99.90;;;;;;5051266;28;20025;-70
2022/01/22 01:13:44;;;;;;;19.63;10.13;;;2.00;99.90;;;;;;5050665;28;20079;-70
2022/01/22 01:32:30;;;;;;;21.13;11.13;;;2.10;99.90;;;;;;5042510;28;20091;-71
2022/01/22 01:34:58;;;;;;;19.27;11.05;;;2.00;99.90;;;;;;5031368;28;20017;-71
2022/01/22 01:37:23;;;;;;;23.65;12.18;;;2.10;99.90;;;;;;5041602;28;20846;-70
2022/01/22 01:39:53;;;;;;;24.08;11.77;;;2.10;99.90;;;;;;5049695;28;20033;-70
2022/01/22 01:45:06;;;;;;;25.83;11.00;;;2.10;99.90;;;;;;5031500;28;20045;-70
2022/01/22 01:47:33;;;;;;;19.80;10.52;;;2.10;99.90;;;;;;5043205;28;20124;-70
2022/01/22 01:49:59;;;;;;;29.33;11.50;;;2.10;99.90;;;;;;5050463;28;20032;-70
2022/01/22 01:53:07;;;;;;;22.25;10.88;;;2.10;99.90;;;;;;5044798;28;20074;-72
2022/01/22 01:55:21;;;;;;;20.15;11.20;;;2.10;99.90;;;;;;5049948;28;20041;-71
2022/01/22 01:57:47;;;;;;;18.42;11.15;;;2.10;99.90;;;;;;5048623;28;20120;-70
2022/01/22 02:00:23;;;;;;;17.77;10.57;;;2.20;99.90;;;;;;5050287;28;20540;-69
2022/01/22 02:02:50;;;;;;;20.83;10.07;;;2.20;99.90;;;;;;5047104;28;20451;-71
2022/01/22 02:05:19;;;;;;;22.63;11.57;;;2.20;99.90;;;;;;5034707;28;20393;-69
2022/01/22 02:07:45;;;;;;;21.50;11.30;;;2.20;99.90;;;;;;5048636;28;20032;-71
2022/01/22 02:10:16;;;;;;;26.00;10.75;;;2.20;99.90;;;;;;5049447;28;20029;-70
2022/01/22 02:26:05;;;;;;;21.23;10.35;;;2.30;99.90;;;;;;5044065;28;20434;-70
2022/01/22 02:28:32;;;;;;;23.75;9.45;;;2.30;99.90;;;;;;5041829;28;20032;-70
2022/01/22 02:36:25;;;;;;;20.35;9.65;;;2.30;99.90;;;;;;5049670;28;20017;-70
2022/01/22 02:39:10;;;;;;;19.08;9.43;;;2.30;99.90;;;;;;5048325;28;20595;-70
2022/01/22 02:41:41;;;;;;;16.42;9.32;;;2.30;99.90;;;;;;5033057;28;20037;-70
2022/01/22 02:44:15;;;;;;;17.83;9.30;;;2.30;99.90;;;;;;5048997;28;20029;-70
2022/01/22 02:46:42;;;;;;;14.50;8.50;;;2.30;99.90;;;;;;5056788;28;20028;-70
2022/01/22 02:49:08;;;;;;;18.70;8.65;;;2.30;99.90;;;;;;5057661;28;20061;-71
2022/01/22 02:51:34;;;;;;;13.52;7.93;;;2.30;99.90;;;;;;5041356;28;20056;-70
2022/01/22 02:54:00;;;;;;;16.80;8.38;;;2.30;99.90;;;;;;5048710;28;20045;-70
2022/01/22 02:56:26;;;;;;;19.10;8.70;;;2.30;99.90;;;;;;5035466;28;20040;-70
2022/01/22 02:58:53;;;;;;;15.82;8.57;;;2.30;99.90;;;;;;5048233;28;20389;-70
2022/01/22 03:01:20;;;;;;;16.27;9.23;;;2.30;99.90;;;;;;5038181;28;20485;-71
2022/01/22 03:03:46;;;;;;;18.02;8.18;;;2.40;99.90;;;;;;5043070;28;20044;-70
2022/01/22 03:06:12;;;;;;;16.80;9.00;;;2.40;99.90;;;;;;5046472;28;20485;-70
2022/01/22 03:08:40;;;;;;;12.63;8.40;;;2.40;99.90;;;;;;5050004;28;20035;-70
2022/01/22 03:11:16;;;;;;;16.52;8.35;;;2.40;99.90;;;;;;5037482;28;20037;-70
2022/01/22 03:16:25;;;;;;;18.45;8.60;;;2.40;99.90;;;;;;5053840;28;20186;-70
2022/01/22 03:19:13;;;;;;;;;;;2.40;99.90;;;;;;5042373;28;20032;-70
2022/01/22 03:21:42;;;;;;;19.67;8.68;;;2.40;99.90;;;;;;5034948;28;19994;-70
2022/01/22 03:29:39;;;;;;;16.33;8.70;;;2.40;99.90;;;;;;5052411;28;20097;-70
2022/01/22 03:32:11;;;;;;;15.63;8.50;;;2.40;99.90;;;;;;5066830;28;20031;-70
2022/01/22 03:34:43;;;;;;;15.80;9.43;;;2.40;99.90;;;;;;5040402;28;20339;-70
2022/01/22 03:37:09;;;;;;;22.38;9.45;;;2.40;99.90;;;;;;5035809;28;20061;-70
2022/01/22 03:39:35;;;;;;;21.02;9.32;;;2.40;99.90;;;;;;5047650;28;20064;-70
2022/01/22 03:42:01;;;;;;;20.98;8.55;;;2.40;99.90;;;;;;5047859;28;20511;-70
2022/01/22 03:44:26;;;;;;;20.67;9.55;;;2.40;99.90;;;;;;5048479;28;20029;-69
2022/01/22 03:46:52;;;;;;;14.00;9.13;;;2.40;99.90;;;;;;5050386;28;20017;-70
2022/01/22 03:49:18;;;;;;;19.48;9.75;;;2.40;99.90;;;;;;5049426;28;20043;-70
2022/01/22 03:51:44;;;;;;;18.50;8.95;;;2.40;99.90;;;;;;5046818;28;20044;-70
2022/01/22 03:54:10;;;;;;;16.25;8.95;;;2.40;99.90;;;;;;5048135;28;20029;-71
2022/01/22 03:56:38;;;;;;;18.00;9.63;;;2.40;99.90;;;;;;5046414;28;20393;-70
2022/01/22 03:59:04;;;;;;;17.63;9.45;;;2.40;99.90;;;;;;5048086;28;20493;-69
2022/01/22 04:04:19;;;;;;;16.15;8.93;;;2.40;99.90;;;;;;5052974;28;20129;-70
2022/01/22 04:09:14;;;;;;;17.05;9.90;;;2.40;99.90;;;;;;5046047;28;20501;-70
2022/01/22 04:11:42;;;;;;;21.25;8.98;;;2.40;99.90;;;;;;5052500;28;20040;-69
2022/01/22 04:14:23;;;;;;;16.98;8.95;;;2.40;99.90;;;;;;5052189;28;20021;-70
2022/01/22 04:24:59;;;;;;;16.20;9.27;;;2.50;99.90;;;;;;5051288;28;20035;-70
2022/01/22 04:27:27;;;;;;;20.50;9.05;;;2.40;99.90;;;;;;5047974;28;20032;-70
2022/01/22 04:29:54;;;;;;;17.17;10.30;;;2.50;99.90;;;;;;5053902;28;20036;-69
2022/01/22 04:32:20;;;;;;;21.33;9.50;;;2.50;99.90;;;;;;5052785;28;20448;-70
2022/01/22 04:34:47;;;;;;;14.82;9.35;;;2.50;99.90;;;;;;5051642;28;20425;-70
2022/01/22 04:37:13;;;;;;;20.75;10.40;;;2.50;99.90;;;;;;5050928;28;20342;-70
2022/01/22 04:39:39;;;;;;;17.67;9.52;;;2.50;99.90;;;;;;5051314;28;20025;-69
2022/01/22 04:42:05;;;;;;;16.52;9.75;;;2.40;99.90;;;;;;5036679;28;20036;-69
2022/01/22 04:44:36;;;;;;;20.70;10.43;;;2.50;99.90;;;;;;5052482;28;20404;-70
2022/01/22 04:47:56;;;;;;;18.83;9.73;;;2.50;99.90;;;;;;5058333;28;20029;-69
2022/01/22 04:54:59;;;;;;;17.17;10.45;;;2.50;99.90;;;;;;5053951;28;20021;-70
2022/01/22 04:57:25;;;;;;;18.90;9.48;;;2.40;99.90;;;;;;5034825;28;20045;-69
2022/01/22 04:59:51;;;;;;;20.25;10.25;;;2.50;99.90;;;;;;5052117;28;20071;-69
2022/01/22 05:04:54;;;;;;;14.15;9.20;;;2.50;99.90;;;;;;5036020;28;20107;-69
2022/01/22 05:07:19;;;;;;;18.00;8.85;;;2.50;99.90;;;;;;5049810;28;20124;-71
2022/01/22 05:09:45;;;;;;;18.73;9.85;;;2.50;99.90;;;;;;5039293;28;20025;-69
2022/01/22 05:12:11;;;;;;;17.25;9.80;;;2.50;99.90;;;;;;5035756;28;20025;-71
2022/01/22 05:14:36;;;;;;;20.58;9.40;;;2.50;99.90;;;;;;5051132;28;20027;-71
2022/01/22 05:17:05;;;;;;;17.88;9.60;;;2.50;99.90;;;;;;5040227;28;20032;-70
2022/01/22 05:19:39;;;;;;;16.02;8.95;;;2.50;99.90;;;;;;5037128;28;20101;-69
2022/01/22 05:22:41;;;;;;;17.30;9.27;;;2.50;99.90;;;;;;5034841;28;20025;-70
2022/01/22 05:24:55;;;;;;;18.55;10.25;;;2.50;99.90;;;;;;5051360;28;20045;-70
2022/01/22 05:38:04;;;;;;;19.38;9.30;;;2.60;99.90;;;;;;5037660;28;20036;-70
2022/01/22 05:40:30;;;;;;;18.73;9.63;;;2.50;99.90;;;;;;5034601;28;20036;-70
2022/01/22 05:42:56;;;;;;;18.35;8.98;;;2.60;99.90;;;;;;5034413;28;20115;-70
2022/01/22 05:45:22;;;;;;;17.55;9.32;;;2.60;99.90;;;;;;5034551;28;20135;-70
2022/01/22 05:47:48;;;;;;;17.77;9.35;;;2.60;99.90;;;;;;5033689;28;20221;-69
2022/01/22 05:50:26;;;;;;;15.60;9.48;;;2.60;99.90;;;;;;5034162;28;20132;-71
2022/01/22 05:52:58;;;;;;;22.65;9.77;;;2.60;99.90;;;;;;5034697;28;20078;-69
2022/01/22 06:00:39;;;;;;;18.65;9.55;;;2.60;99.90;;;;;;5048071;28;20128;-70
2022/01/22 06:03:05;;;;;;;16.92;9.52;;;2.60;99.90;;;;;;5033497;28;20516;-70
2022/01/22 06:05:30;;;;;;;18.27;9.07;;;2.60;99.90;;;;;;5033742;28;20083;-71
2022/01/22 06:07:56;;;;;;;16.90;9.55;;;2.60;99.90;;;;;;5034124;28;20048;-70
2022/01/22 06:10:27;;;;;;;24.10;10.18;;;2.60;99.90;;;;;;5034019;28;20035;-70
2022/01/22 06:13:12;;;;;;;20.52;9.70;;;2.70;99.90;;;;;;5034165;28;20530;-70
2022/01/22 06:15:38;;;;;;;17.45;9.52;;;2.60;99.90;;;;;;5033549;28;20477;-71
2022/01/22 06:18:04;;;;;;;16.98;8.82;;;2.60;99.90;;;;;;5035308;28;20091;-70
2022/01/22 06:20:29;;;;;;;15.02;8.88;;;2.60;99.90;;;;;;5034237;28;20120;-70
2022/01/22 06:22:55;;;;;;;17.20;9.70;;;2.70;99.90;;;;;;5034043;28;20028;-70
2022/01/22 06:25:21;;;;;;;17.73;9.45;;;2.70;99.90;;;;;;5032010;28;20032;-69
2022/01/22 06:27:46;;;;;;;14.10;8.18;;;2.60;99.90;;;;;;5028299;28;20025;-70
2022/01/22 06:30:12;;;;;;;19.55;9.98;;;2.60;99.90;;;;;;5031742;28;20029;-71
2022/01/22 06:32:38;;;;;;;13.77;9.05;;;2.70;99.90;;;;;;5024277;28;20379;-71
2022/01/22 06:35:05;;;;;;;14.20;8.55;;;2.70;99.90;;;;;;5025243;28;20082;-70
2022/01/22 06:37:30;;;;;;;19.58;9.27;;;2.70;99.90;;;;;;5032404;28;20083;-70
2022/01/22 06:42:48;;;;;;;18.25;9.45;;;2.70;99.90;;;;;;5027499;28;20223;-70
2022/01/22 06:45:13;;;;;;;17.38;9.13;;;2.70;99.90;;;;;;5033462;28;20060;-70
2022/01/22 06:47:40;;;;;;;18.38;9.10;;;2.70;99.90;;;;;;5033515;28;20025;-70
2022/01/22 06:50:07;;;;;;;18.67;8.68;;;2.70;99.90;;;;;;5032675;28;20025;-70
2022/01/22 06:52:33;;;;;;;16.25;8.48;;;2.70;99.90;;;;;;5033393;28;20374;-70
2022/01/22 06:54:59;;;;;;;16.13;9.23;;;2.70;99.90;;;;;;5032667;28;20029;-71
2022/01/22 06:57:25;;;;;;;19.13;9.85;;;2.70;99.90;;;;;;5032811;28;20057;-70
2022/01/22 06:59:50;;;;;;;20.20;9.27;;;2.70;99.90;;;;;;5033484;28;20116;-70
2022/01/22 07:02:17;;;;;;;17.83;9.40;;;2.70;99.90;;;;;;5032787;28;20052;-70
2022/01/22 07:04:43;;;;;;;21.42;9.75;;;2.70;99.90;;;;;;5030034;28;20451;-70
2022/01/22 07:07:09;;;;;;;18.80;9.95;;;2.60;99.90;;;;;;5032016;28;20106;-70
2022/01/22 07:09:36;;;;;;;21.10;10.43;;;2.60;99.90;;;;;;5032484;28;20038;-70
2022/01/22 07:12:03;;;;;;;18.02;9.65;;;2.60;99.90;;;;;;5050157;28;20033;-69
2022/01/22 07:14:29;;;;;;;16.95;9.77;;;2.60;99.90;;;;;;5032600;28;20096;-70
2022/01/22 07:16:55;;;;;;;16.08;9.55;;;2.60;99.90;;;;;;5033002;28;20021;-70
2022/01/22 07:19:21;;;;;;;22.70;11.00;;;2.60;99.90;;;;;;5031591;28;20422;-69
2022/01/22 07:21:56;;;;;;;19.10;10.18;;;2.70;99.90;;;;;;5033256;28;20162;-70
2022/01/22 07:24:26;;;;;;;24.13;10.23;;;2.70;99.90;;;;;;5022333;28;20082;-69
2022/01/22 07:26:53;;;;;;;17.90;9.93;;;2.70;99.90;;;;;;5026792;28;20474;-69
2022/01/22 07:29:20;;;;;;;23.98;9.00;;;2.70;99.90;;;;;;5021182;28;20133;-70
2022/01/22 07:31:46;;;;;;;17.45;9.65;;;2.70;99.90;;;;;;5032747;28;20021;-70
2022/01/22 07:34:12;;;;;;;17.20;9.02;;;2.70;99.90;;;;;;5024341;28;20028;-70
2022/01/22 07:36:38;;;;;;;22.42;9.85;;;2.70;99.90;;;;;;5045896;28;20444;-69
2022/01/22 07:39:04;;;;;;;19.25;10.38;;;2.70;99.90;;;;;;5032534;28;20029;-70
2022/01/22 07:41:30;;;;;;;16.80;9.48;;;2.70;99.90;;;;;;5032886;28;20465;-69
2022/01/22 07:43:55;;;;;;;20.73;9.50;;;2.70;99.90;;;;;;5032711;28;20108;-69
2022/01/22 07:46:21;;;;;;;20.45;9.50;;;2.60;99.90;;;;;;5032806;28;20106;-68
2022/01/22 07:48:48;;;;;;;22.35;11.30;;;2.70;99.90;;;;;;5032783;28;20132;-69
2022/01/22 07:51:14;;;;;;;22.23;10.77;;;2.70;99.90;;;;;;5033123;28;20059;-70
2022/01/22 07:53:41;;;;;;;21.25;10.23;;;2.70;99.90;;;;;;5032348;28;20053;-69
2022/01/22 07:56:06;;;;;;;21.83;10.80;;;2.60;99.90;;;;;;5032342;28;20025;-70
2022/01/22 07:58:32;;;;;;;18.45;10.00;;;2.70;99.90;;;;;;5031518;28;20017;-71
2022/01/22 08:00:58;;;;;;;16.13;9.55;;;2.70;99.90;;;;;;5030412;28;20060;-70
2022/01/22 08:03:26;;;;;;;22.95;9.90;;;2.70;99.90;;;;;;5033094;28;20037;-69
2022/01/22 08:05:52;;;;;;;16.40;10.30;;;2.70;99.90;;;;;;5032015;28;20365;-70
2022/01/22 08:08:17;;;;;;;17.63;10.90;;;2.70;99.90;;;;;;5032272;28;20032;-69
2022/01/22 08:10:43;;;;;;;19.00;9.38;;;2.70;99.90;;;;;;5037069;28;20035;-70
2022/01/22 08:13:09;;;;;;;21.40;10.30;;;2.70;99.90;;;;;;5040626;28;20118;-70
2022/01/22 08:15:34;;;;;;;17.35;9.90;;;2.70;99.90;;;;;;5051206;28;20028;-70
2022/01/22 08:18:02;;;;;;;18.77;10.60;;;2.70;99.90;;;;;;5033576;28;20029;-70
2022/01/22 08:20:28;;;;;;;17.15;9.55;;;2.70;99.90;;;;;;5032463;28;20106;-69
2022/01/22 08:22:54;;;;;;;23.05;10.60;;;2.80;99.90;;;;;;5032115;28;20397;-70
2022/01/22 08:25:20;;;;;;;19.48;9.68;;;2.80;99.90;;;;;;5047365;28;20025;-69
2022/01/22 08:30:28;;;;;;;16.63;8.88;;;2.80;99.90;;;;;;5049334;28;20473;-69
2022/01/22 08:35:53;;;;;;;20.00;9.95;;;2.80;99.90;;;;;;5046022;28;20108;-69
2022/01/22 08:38:21;;;;;;;23.15;11.77;;;2.80;99.90;;;;;;5031702;28;20056;-68
2022/01/22 08:40:46;;;;;;;22.05;10.32;;;2.80;99.90;;;;;;5032859;28;20571;-69
2022/01/22 08:43:12;;;;;;;17.58;10.30;;;2.80;99.90;;;;;;5031802;28;20029;-69
2022/01/22 08:45:39;;;;;;;20.83;10.70;;;2.80;99.90;;;;;;5048181;28;20025;-70
2022/01/22 08:48:05;;;;;;;21.30;11.20;;;2.80;99.90;;;;;;5032487;28;20040;-70
2022/01/22 08:50:32;;;;;;;19.17;9.63;;;2.80;99.90;;;;;;5050623;28;20034;-70
2022/01/22 08:52:57;;;;;;;19.95;9.70;;;2.80;99.90;;;;;;5036247;28;20029;-70
2022/01/22 08:55:24;;;;;;;17.60;10.25;;;2.80;99.90;;;;;;5045192;28;20048;-70
2022/01/22 08:57:51;;;;;;;18.45;9.30;;;2.80;99.90;;;;;;5036092;28;20032;-70
2022/01/22 09:00:19;;;;;;;13.38;9.18;;;2.90;99.90;;;;;;5032725;28;20029;-71
2022/01/22 09:02:46;;;;;;;17.10;10.27;;;2.90;99.90;;;;;;5036100;28;20021;-69
2022/01/22 09:05:16;;;;;;;18.33;9.30;;;2.90;99.90;;;;;;5034485;28;20504;-69
2022/01/22 09:07:42;;;;;;;21.13;10.02;;;2.90;99.90;;;;;;5031685;28;20033;-70
2022/01/22 09:10:08;;;;;;;18.55;9.88;;;2.90;99.90;;;;;;5041918;28;20029;-71
2022/01/22 09:12:34;;;;;;;19.27;9.65;;;2.90;99.90;;;;;;5023450;28;20025;-70
2022/01/22 09:14:59;;;;;;;16.60;9.50;;;2.90;99.90;;;;;;5034429;28;20025;-70
2022/01/22 09:17:25;;;;;;;17.63;8.85;;;2.90;99.90;;;;;;5031533;28;20021;-69
2022/01/22 09:19:57;;;;;;;20.73;10.18;;;2.90;99.90;;;;;;5034905;28;20021;-70
2022/01/22 09:22:23;;;;;;;23.20;9.90;;;2.90;99.90;;;;;;5029881;28;20071;-69
2022/01/22 09:24:49;;;;;;;19.33;10.00;;;2.90;99.90;;;;;;5036897;28;20476;-71
2022/01/22 09:27:16;;;;;;;27.63;13.60;;;2.90;99.90;;;;;;5033006;28;20209;-70
2022/01/22 09:29:42;;;;;;;22.50;10.00;;;2.90;99.90;;;;;;5031341;28;20087;-70
2022/01/22 09:32:08;;;;;;;17.15;9.75;;;2.90;99.90;;;;;;5025210;28;20029;-70
2022/01/22 09:34:34;;;;;;;19.05;9.38;;;2.90;99.90;;;;;;5026837;28;20191;-70
2022/01/22 09:36:59;;;;;;;17.02;8.70;;;2.90;99.90;;;;;;5020594;28;20025;-71
2022/01/22 09:39:25;;;;;;;18.48;9.70;;;2.90;99.90;;;;;;5015661;28;20128;-70
2022/01/22 09:41:51;;;;;;;17.75;10.52;;;2.90;99.90;;;;;;5016280;28;20090;-71
2022/01/22 09:44:16;;;;;;;20.70;9.77;;;2.90;99.90;;;;;;5031989;28;20591;-70
2022/01/22 09:46:43;;;;;;;15.57;9.02;;;2.90;99.90;;;;;;5022122;28;20405;-71
2022/01/22 09:49:10;;;;;;;24.42;11.60;;;2.90;99.90;;;;;;5015265;28;20033;-70
2022/01/22 09:51:36;;;;;;;22.15;10.75;;;3.00;99.90;;;;;;5035592;28;20174;-70
2022/01/22 09:54:02;;;;;;;17.00;9.60;;;3.00;99.90;;;;;;5033604;28;20112;-70
2022/01/22 09:56:30;;;;;;;19.27;10.18;;;3.00;99.90;;;;;;5035761;28;20028;-70
2022/01/22 09:58:56;;;;;;;15.20;9.02;;;3.00;99.90;;;;;;5035004;28;20032;-71
2022/01/22 10:01:23;;;;;;;15.05;9.20;;;2.90;99.90;;;;;;5034882;28;20102;-71
2022/01/22 10:03:50;;;;;;;13.40;8.82;;;3.00;99.90;;;;;;5024459;28;20065;-70
2022/01/22 10:06:25;;;;;;;16.83;8.93;;;3.00;99.90;;;;;;5025983;28;20492;-70
2022/01/22 10:08:56;;;;;;;17.60;8.38;;;2.90;99.90;;;;;;5034779;28;20032;-70
2022/01/22 10:11:25;;;;;;;16.40;9.20;;;2.90;99.90;;;;;;5034450;28;20033;-71
2022/01/22 10:13:59;;;;;;;14.20;8.82;;;2.90;99.90;;;;;;5030752;28;20025;-69
2022/01/22 10:16:27;;;;;;;13.98;9.27;;;2.90;99.90;;;;;;5014955;28;20025;-71
2022/01/22 10:19:17;;;;;;;18.10;9.20;;;3.00;99.90;;;;;;5014769;28;20087;-71
2022/01/22 10:21:49;;;;;;;16.90;9.20;;;2.90;99.90;;;;;;5020590;28;20025;-70
2022/01/22 10:24:39;;;;;;;19.20;9.57;;;2.90;99.90;;;;;;5023210;28;20099;-71
2022/01/22 10:27:27;;;;;;;15.82;8.90;;;3.00;99.90;;;;;;5037208;28;20068;-70
2022/01/22 10:30:00;;;;;;;14.52;9.38;;;2.90;99.90;;;;;;5022954;28;20561;-70
2022/01/22 10:32:39;;;;;;;15.57;9.27;;;2.90;99.90;;;;;;5032744;28;20118;-70
2022/01/22 10:35:17;;;;;;;13.13;8.70;;;2.90;99.90;;;;;;5025906;28;20526;-71
2022/01/22 10:37:43;;;;;;;17.70;8.93;;;3.00;99.90;;;;;;5043563;28;20039;-70
2022/01/22 10:40:32;;;;;;;13.85;8.65;;;3.00;99.90;;;;;;5034161;28;20037;-70
2022/01/22 10:43:13;;;;;;;20.20;10.02;;;3.00;99.90;;;;;;5034222;28;20025;-70
2022/01/22 10:45:42;;;;;;;18.52;10.15;;;3.00;99.90;;;;;;5034658;28;20106;-71
2022/01/22 10:48:23;;;;;;;18.48;9.25;;;3.00;99.90;;;;;;5033763;28;20039;-70
2022/01/22 10:51:09;;;;;;;13.27;8.25;;;3.00;99.90;;;;;;5051292;28;20025;-70
2022/01/22 10:53:42;;;;;;;19.67;9.70;;;3.00;99.90;;;;;;5033659;28;20028;-70
2022/01/22 10:56:08;;;;;;;21.10;10.55;;;3.10;99.90;;;;;;5025058;28;20036;-70
2022/01/22 10:58:35;;;;;;;16.13;9.25;;;3.10;99.90;;;;;;5033060;28;20098;-70
2022/01/22 11:01:03;;;;;;;16.17;9.38;;;3.10;99.90;;;;;;5034174;28;20024;-70
2022/01/22 11:03:29;;;;;;;17.67;10.05;;;3.00;99.90;;;;;;5033978;28;20449;-70
2022/01/22 11:05:54;;;;;;;20.53;11.63;;;3.00;99.90;;;;;;5046014;22;20140;-70
2022/01/22 11:08:20;;;;;;;18.90;11.55;;;3.00;99.90;;;;;;5075386;28;20748;-67
2022/01/22 11:10:46;;;;;;;18.42;11.07;;;3.10;99.90;;;;;;5089079;28;20028;-68
2022/01/22 11:13:12;;;;;;;16.77;9.60;;;3.10;99.90;;;;;;5089745;28;20111;-67
2022/01/22 11:15:43;;;;;;;14.70;9.23;;;3.00;99.90;;;;;;5091086;28;20031;-67
2022/01/22 11:18:11;;;;;;;18.50;10.00;;;3.00;99.90;;;;;;5089902;28;20456;-68
2022/01/22 11:20:37;;;;;;;15.90;10.00;;;3.00;99.90;;;;;;5091149;28;20399;-68
2022/01/22 11:23:04;;;;;;;18.08;9.32;;;3.10;99.90;;;;;;5074500;28;20121;-68
2022/01/22 11:25:33;;;;;;;20.27;9.85;;;3.10;99.90;;;;;;5070209;28;20477;-68
2022/01/22 11:28:00;;;;;;;15.70;9.73;;;3.10;99.90;;;;;;5069039;28;20515;-67
2022/01/22 11:30:28;;;;;;;20.25;9.93;;;3.10;99.90;;;;;;5080929;28;20029;-67
2022/01/22 11:33:00;;;;;;;18.95;10.82;;;3.10;99.90;;;;;;5090679;28;20512;-68
2022/01/22 11:35:51;;;;;;;20.23;10.52;;;3.10;99.90;;;;;;5088550;28;20020;-68
2022/01/22 11:38:31;;;;;;;21.27;10.35;;;3.10;99.90;;;;;;5050156;28;20052;-68
2022/01/22 11:41:24;;;;;;;22.17;10.93;;;3.00;99.90;;;;;;5081018;28;20034;-68
2022/01/22 11:44:17;;;;;;;21.73;10.98;;;3.10;99.90;;;;;;5066155;28;20507;-68
2022/01/22 11:46:51;;;;;;;24.98;10.88;;;3.10;99.90;;;;;;5069701;28;20036;-67
2022/01/22 11:49:22;;;;;;;18.60;11.43;;;3.10;99.90;;;;;;5069454;28;20035;-68
2022/01/22 11:52:07;;;;;;;19.92;11.50;;;3.10;99.90;;;;;;5069617;28;20114;-68
2022/01/22 11:55:02;;;;;;;19.10;11.50;;;3.10;99.90;;;;;;5069497;28;20021;-67
2022/01/22 11:57:30;;;;;;;21.92;11.40;;;3.10;99.90;;;;;;5069087;28;20020;-70
2022/01/22 12:00:28;;;;;;;25.50;11.85;;;3.10;99.90;;;;;;5068160;28;20043;-67
2022/01/22 12:03:03;;;;;;;20.98;12.00;;;3.20;99.90;;;;;;5066233;28;20027;-67
2022/01/22 12:05:30;;;;;;;21.92;10.93;;;3.10;99.90;;;;;;5067284;28;20484;-68
2022/01/22 12:07:57;;;;;;;18.55;11.05;;;3.20;99.90;;;;;;5073181;28;20388;-67
2022/01/22 12:10:36;;;;;;;21.13;11.93;;;3.20;99.90;;;;;;5072927;28;20052;-68
2022/01/22 12:16:12;;;;;;;27.58;12.80;;;3.20;99.90;;;;;;5064243;28;20105;-68
2022/01/22 12:18:46;;;;;;;19.60;12.05;;;3.20;99.90;;;;;;5059302;28;20020;-67
2022/01/22 12:21:34;;;;;;;22.83;13.13;;;3.20;99.90;;;;;;5069619;28;20036;-68
2022/01/22 12:24:01;;;;;;;22.70;13.10;;;3.20;99.90;;;;;;5057561;28;20032;-67
2022/01/22 12:26:48;;;;;;;93.22;35.83;;;3.20;99.90;;;;;;5057091;28;20039;-66
2022/01/22 12:29:41;;;;;;;39.03;25.10;;;3.20;99.90;;;;;;5071100;28;20079;-67
2022/01/22 12:32:20;;;;;;;32.30;15.40;;;3.20;99.90;;;;;;5065904;28;20553;-67
2022/01/22 12:34:58;;;;;;;31.33;14.70;;;3.30;99.90;;;;;;5062429;28;20029;-67
2022/01/22 12:37:25;;;;;;;28.00;14.48;;;3.30;99.90;;;;;;5071368;28;20484;-67
2022/01/22 12:39:54;;;;;;;23.27;13.20;;;3.30;99.90;;;;;;5070084;28;20029;-67
2022/01/22 12:42:31;;;;;;;24.52;13.27;;;3.30;99.90;;;;;;5066168;28;20112;-66
2022/01/22 12:44:59;;;;;;;29.15;15.82;;;3.30;99.90;;;;;;5071767;28;20032;-67
2022/01/22 12:47:26;;;;;;;25.40;13.10;;;3.30;99.90;;;;;;5068729;28;20771;-67
2022/01/22 12:50:00;;;;;;;24.90;13.68;;;3.30;99.90;;;;;;5072005;28;20032;-68
2022/01/22 12:52:27;;;;;;;28.35;14.07;;;3.30;99.90;;;;;;5071134;28;20020;-68
2022/01/22 12:54:57;;;;;;;23.25;13.52;;;3.30;99.90;;;;;;5073748;28;20028;-67
2022/01/22 12:57:25;;;;;;;29.45;14.90;;;3.30;99.90;;;;;;5077821;28;20336;-69
2022/01/22 12:59:51;;;;;;;30.85;15.43;;;3.30;99.90;;;;;;5069463;28;20025;-68
2022/01/22 13:02:17;;;;;;;29.73;15.48;;;3.30;99.90;;;;;;5060001;28;20365;-68
2022/01/22 13:04:57;;;;;;;23.17;13.63;;;3.30;99.90;;;;;;5060917;28;20035;-67
2022/01/22 13:07:24;;;;;;;25.92;14.23;;;3.30;99.90;;;;;;5079707;28;20399;-68
2022/01/22 13:09:54;;;;;;;28.70;14.30;;;3.30;99.90;;;;;;5076317;28;20029;-69
2022/01/22 13:12:20;;;;;;;24.60;14.23;;;3.20;99.90;;;;;;5072980;28;20027;-68
2022/01/22 13:14:46;;;;;;;25.15;13.65;;;3.30;99.90;;;;;;5071052;28;20107;-68
2022/01/22 13:17:13;;;;;;;31.83;15.25;;;3.30;99.90;;;;;;5070297;28;20536;-68
2022/01/22 13:19:40;;;;;;;34.70;15.52;;;3.30;99.90;;;;;;5071534;28;20023;-68
2022/01/22 13:22:06;;;;;;;29.27;14.15;;;3.30;99.90;;;;;;5071799;28;20074;-68
2022/01/22 13:24:35;;;;;;;24.95;13.98;;;3.30;99.90;;;;;;5071848;28;20126;-69
2022/01/22 13:27:12;;;;;;;29.35;14.27;;;3.30;99.90;;;;;;5071960;28;20416;-69
2022/01/22 13:29:40;;;;;;;32.63;14.80;;;3.30;99.90;;;;;;5072180;28;20032;-68
2022/01/22 13:32:14;;;;;;;28.67;15.25;;;3.30;99.90;;;;;;5067750;28;20124;-68
2022/01/22 13:35:06;;;;;;;27.05;14.68;;;3.30;99.90;;;;;;5067181;28;20025;-69
2022/01/22 13:48:31;;;;;;;26.17;14.95;;;3.30;99.90;;;;;;5069143;28;20031;-68
2022/01/22 13:50:58;;;;;;;32.55;17.42;;;3.30;99.90;;;;;;5069011;28;20085;-68
2022/01/22 13:53:24;;;;;;;51.17;25.73;;;3.30;99.90;;;;;;5067994;28;20035;-67
2022/01/22 13:56:11;;;;;;;44.30;25.13;;;3.40;99.90;;;;;;5068504;28;20028;-68
2022/01/22 13:58:37;;;;;;;29.52;16.80;;;3.40;99.90;;;;;;5065297;28;20024;-68
2022/01/22 14:01:39;;;;;;;36.28;20.15;;;3.40;99.90;;;;;;5065562;28;20042;-68
2022/01/22 14:04:09;;;;;;;31.42;15.93;;;3.40;99.90;;;;;;5064669;28;20032;-67
2022/01/22 14:06:35;;;;;;;28.48;14.30;;;3.40;99.90;;;;;;5070587;28;20040;-67
2022/01/22 14:09:18;;;;;;;34.25;15.57;;;3.40;99.90;;;;;;5067103;28;20037;-67
2022/01/22 14:12:07;;;;;;;31.55;16.70;;;3.40;99.90;;;;;;5074086;28;20158;-67
2022/01/22 14:14:56;;;;;;;24.98;15.18;;;3.40;99.90;;;;;;5060731;28;20032;-67
2022/01/22 14:17:25;;;;;;;28.70;15.63;;;3.40;99.90;;;;;;5059236;28;20024;-67
2022/01/22 14:19:58;;;;;;;28.88;15.60;;;3.40;99.90;;;;;;5076636;28;20013;-67
2022/01/22 14:22:24;;;;;;;29.92;16.27;;;3.40;99.90;;;;;;5067756;28;20025;-67
2022/01/22 14:24:50;;;;;;;28.50;15.57;;;3.40;99.90;;;;;;5067368;28;20035;-67
2022/01/22 14:27:20;;;;;;;26.48;15.15;;;3.40;99.90;;;;;;5066506;28;20024;-67
2022/01/22 14:29:47;;;;;;;28.85;16.20;;;3.40;99.90;;;;;;5064704;28;20028;-68
2022/01/22 14:32:16;;;;;;;27.80;14.07;;;3.40;99.90;;;;;;5067901;28;20050;-67
2022/01/22 14:34:43;;;;;;;29.05;15.57;;;3.50;99.90;;;;;;5068199;28;20480;-67
2022/01/22 14:37:24;;;;;;;26.98;14.10;;;3.50;99.90;;;;;;5074250;28;20028;-66
2022/01/22 14:45:24;;;;;;;25.45;14.50;;;3.50;99.90;;;;;;5069309;28;20027;-67
2022/01/22 14:47:57;;;;;;;29.08;14.27;;;3.50;99.90;;;;;;5065977;28;20020;-69